Time;durP1;ratioP1;P1;durP2;ratioP2;P2;SDS_P1;SDS_P2;PMS_P1;PMS_P2;Temp;Humidity;BMP_temperature;BMP_pressure;BME280_temperature;BME280_humidity;BME280_pressure;Samples;Min_cycle;Max_cycle;Signal;HPM_P1;HPM_P2
2021/03/11 00:00:11;;;;;;;22.37;12.83;;;;;;;9.84;38.99;96231.13;5060798;28;20417;-69
2021/03/11 00:02:37;;;;;;;18.97;12.03;;;;;;;9.93;39.14;96224.06;5060069;28;20220;-68
2021/03/11 00:05:06;;;;;;;22.50;12.70;;;;;;;9.90;39.46;96224.38;5074440;28;20453;-68
2021/03/11 00:07:32;;;;;;;18.03;12.30;;;;;;;9.90;39.06;96219.16;5075501;28;20233;-66
2021/03/11 00:09:57;;;;;;;19.80;12.57;;;;;;;9.99;39.15;96210.25;5067911;28;20498;-68
2021/03/11 00:12:23;;;;;;;19.30;12.63;;;;;;;9.64;39.98;96212.41;5058061;28;20210;-68
2021/03/11 00:14:49;;;;;;;19.80;13.60;;;;;;;9.48;40.06;96209.84;5054615;28;20670;-69
2021/03/11 00:17:14;;;;;;;19.70;12.57;;;;;;;9.74;39.98;96208.75;5053332;28;20590;-68
2021/03/11 00:19:40;;;;;;;20.50;13.70;;;;;;;9.74;39.96;96203.53;5067013;28;20203;-69
2021/03/11 00:22:07;;;;;;;19.10;12.27;;;;;;;9.67;40.01;96209.47;5074861;28;20199;-71
2021/03/11 00:24:33;;;;;;;18.00;11.80;;;;;;;9.40;40.42;96200.25;5044802;28;20649;-69
2021/03/11 00:26:59;;;;;;;19.70;13.37;;;;;;;9.76;40.24;96206.78;5078815;28;20432;-67
2021/03/11 00:29:25;;;;;;;19.67;11.87;;;;;;;9.81;39.94;96209.72;5050037;28;20179;-71
2021/03/11 00:31:53;;;;;;;16.20;11.47;;;;;;;9.99;39.95;96205.03;5064093;28;20528;-69
2021/03/11 00:34:19;;;;;;;19.63;12.93;;;;;;;9.92;40.26;96198.88;5057468;28;20183;-67
2021/03/11 00:36:45;;;;;;;19.37;12.70;;;;;;;9.88;40.01;96202.00;5057215;28;20520;-68
2021/03/11 00:39:11;;;;;;;17.30;12.40;;;;;;;9.94;40.36;96196.91;5054996;28;20206;-68
2021/03/11 00:41:37;;;;;;;17.17;11.80;;;;;;;9.55;41.39;96210.81;5065527;28;20549;-68
2021/03/11 00:44:02;;;;;;;17.60;11.63;;;;;;;9.45;41.60;96210.22;5054819;28;20452;-66
2021/03/11 00:46:28;;;;;;;19.43;13.27;;;;;;;9.73;41.27;96207.97;5054907;28;20447;-66
2021/03/11 00:48:54;;;;;;;16.70;12.30;;;;;;;10.01;40.54;96198.81;5036275;28;20186;-68
2021/03/11 00:51:19;;;;;;;22.50;13.10;;;;;;;9.78;41.33;96194.34;5059760;28;20226;-66
2021/03/11 00:53:45;;;;;;;19.43;12.57;;;;;;;10.02;40.94;96201.25;5045698;28;20186;-69
2021/03/11 00:56:10;;;;;;;20.43;13.17;;;;;;;9.94;40.93;96207.38;5053336;28;20202;-67
2021/03/11 00:58:36;;;;;;;17.50;12.13;;;;;;;9.90;41.28;96200.84;5054043;28;20502;-68
2021/03/11 01:01:03;;;;;;;17.50;11.47;;;;;;;9.77;41.47;96192.72;5054502;28;20313;-66
2021/03/11 01:03:29;;;;;;;22.23;12.40;;;;;;;9.90;41.14;96195.59;5054406;28;20183;-67
2021/03/11 01:05:54;;;;;;;17.60;12.57;;;;;;;9.46;42.27;96196.13;5055881;28;20457;-67
2021/03/11 01:08:20;;;;;;;19.83;11.97;;;;;;;9.86;41.34;96204.78;5055184;28;20540;-66
2021/03/11 01:10:46;;;;;;;17.60;12.00;;;;;;;9.62;42.20;96198.69;5054270;28;20210;-67
2021/03/11 01:13:11;;;;;;;18.90;11.73;;;;;;;9.68;42.25;96199.81;5053289;28;20191;-68
2021/03/11 01:15:39;;;;;;;19.33;12.10;;;;;;;9.64;41.98;96199.34;5053981;28;20179;-68
2021/03/11 01:18:06;;;;;;;18.90;12.73;;;;;;;9.56;42.77;96188.09;5059176;28;20204;-68
2021/03/11 01:20:32;;;;;;;24.50;11.57;;;;;;;9.77;42.46;96188.28;5053191;28;20459;-69
2021/03/11 01:22:58;;;;;;;18.60;11.43;;;;;;;9.40;42.55;96181.94;5055672;28;20456;-68
2021/03/11 01:25:23;;;;;;;15.60;11.10;;;;;;;9.67;42.12;96178.06;5053793;28;20183;-68
2021/03/11 01:27:49;;;;;;;17.10;11.50;;;;;;;9.57;42.89;96153.94;5053533;28;20179;-66
2021/03/11 01:30:15;;;;;;;13.27;9.90;;;;;;;9.63;42.86;96158.47;5053519;28;20573;-67
2021/03/11 01:32:41;;;;;;;18.60;9.20;;;;;;;9.69;42.62;96149.09;5052847;28;20214;-68
2021/03/11 01:35:07;;;;;;;12.27;8.90;;;;;;;10.05;41.94;96137.28;5055952;28;20409;-68
2021/03/11 01:37:33;;;;;;;11.77;8.47;;;;;;;9.97;42.20;96117.19;5065395;28;20573;-68
2021/03/11 01:39:58;;;;;;;14.90;9.20;;;;;;;9.80;42.88;96117.31;5064623;28;20977;-68
2021/03/11 01:42:24;;;;;;;11.13;7.70;;;;;;;9.61;43.38;96104.69;5059231;28;20198;-67
2021/03/11 01:44:49;;;;;;;12.17;8.10;;;;;;;9.60;43.71;96103.88;5053310;28;20194;-68
2021/03/11 01:47:15;;;;;;;13.20;7.50;;;;;;;9.95;43.47;96085.16;5046296;28;20183;-67
2021/03/11 01:49:41;;;;;;;14.27;7.60;;;;;;;9.86;43.37;96081.78;5061109;28;20662;-68
2021/03/11 01:52:07;;;;;;;15.33;6.30;;;;;;;9.56;45.11;96060.75;5059929;28;20203;-68
2021/03/11 01:54:33;;;;;;;10.80;6.23;;;;;;;9.25;46.63;96056.34;5059517;28;20179;-69
2021/03/11 01:57:00;;;;;;;7.77;5.70;;;;;;;9.50;45.90;96049.19;5054312;28;20361;-68
2021/03/11 01:59:26;;;;;;;8.90;5.30;;;;;;;9.42;46.61;96053.66;5057869;28;20461;-67
2021/03/11 02:01:52;;;;;;;6.90;5.30;;;;;;;9.81;46.05;96047.50;5054399;28;20448;-68
2021/03/11 02:04:17;;;;;;;21.50;5.27;;;;;;;9.86;45.48;96045.16;5051180;28;20205;-67
2021/03/11 02:06:43;;;;;;;8.73;5.30;;;;;;;9.89;45.47;96038.75;5052221;28;20433;-68
2021/03/11 02:09:08;;;;;;;10.20;5.83;;;;;;;9.81;45.36;96031.78;5052612;28;20190;-68
2021/03/11 02:11:37;;;;;;;11.97;5.70;;;;;;;9.93;45.30;96027.75;5051976;28;20747;-67
2021/03/11 02:14:13;;;;;;;10.03;5.20;;;;;;;9.95;45.03;96011.88;5051749;28;20570;-68
2021/03/11 02:17:00;;;;;;;7.17;5.07;;;;;;;9.93;45.30;96004.22;5061641;28;20427;-67
2021/03/11 02:19:56;;;;;;;11.50;5.67;;;;;;;9.99;45.43;96002.69;5028873;28;20461;-67
2021/03/11 02:22:47;;;;;;;8.93;5.70;;;;;;;10.05;45.13;96001.16;5055254;28;20880;-68
2021/03/11 02:25:28;;;;;;;8.90;5.30;;;;;;;10.01;44.80;96000.72;5048286;28;20417;-65
2021/03/11 02:28:15;;;;;;;9.00;5.60;;;;;;;10.04;44.75;95989.06;5052783;28;20500;-67
2021/03/11 02:30:41;;;;;;;7.50;5.50;;;;;;;10.30;44.32;95973.72;5051657;28;20422;-67
2021/03/11 02:33:08;;;;;;;8.57;5.77;;;;;;;10.39;44.19;95971.88;5050008;28;20421;-67
2021/03/11 02:35:36;;;;;;;6.63;5.40;;;;;;;10.15;44.65;95963.22;5050769;28;20217;-67
2021/03/11 02:38:03;;;;;;;8.30;5.90;;;;;;;10.14;44.17;95947.72;5051043;28;20960;-67
2021/03/11 02:40:30;;;;;;;9.30;5.67;;;;;;;10.09;44.76;95948.25;5055294;28;20782;-68
2021/03/11 02:42:57;;;;;;;8.47;5.73;;;;;;;10.08;44.64;95949.25;5059586;28;20437;-68
2021/03/11 02:45:27;;;;;;;10.93;6.20;;;;;;;10.14;44.26;95940.66;5050444;28;20433;-67
2021/03/11 02:47:56;;;;;;;10.10;6.57;;;;;;;10.27;43.92;95942.66;5051652;28;20422;-67
2021/03/11 02:50:21;;;;;;;8.80;6.27;;;;;;;10.13;44.01;95944.31;5061661;28;20782;-67
2021/03/11 02:52:48;;;;;;;9.83;6.73;;;;;;;10.18;43.30;95937.69;5052307;28;20446;-67
2021/03/11 02:55:14;;;;;;;13.10;6.20;;;;;;;9.94;43.67;95932.56;5051340;28;20214;-68
2021/03/11 02:57:41;;;;;;;7.87;6.03;;;;;;;10.20;43.01;95927.84;5033809;28;20426;-67
2021/03/11 03:00:09;;;;;;;7.80;6.23;;;;;;;9.98;43.71;95928.56;5050227;28;20541;-67
2021/03/11 03:02:36;;;;;;;9.50;6.57;;;;;;;9.92;43.89;95915.38;5050566;28;20468;-67
2021/03/11 03:05:02;;;;;;;9.23;6.27;;;;;;;10.04;43.71;95918.38;5049719;28;20532;-67
2021/03/11 03:07:29;;;;;;;9.80;6.87;;;;;;;10.06;43.66;95908.56;5029983;28;20550;-67
2021/03/11 03:09:56;;;;;;;9.80;6.80;;;;;;;10.09;43.66;95914.22;5048282;28;20418;-67
2021/03/11 03:12:22;;;;;;;9.57;6.60;;;;;;;10.05;43.51;95899.06;5049434;28;20936;-67
2021/03/11 03:14:49;;;;;;;10.70;6.53;;;;;;;10.16;43.11;95888.16;5050945;28;20459;-68
2021/03/11 03:17:18;;;;;;;10.70;7.07;;;;;;;10.04;43.08;95890.38;5051167;28;20450;-67
2021/03/11 03:19:44;;;;;;;9.93;6.77;;;;;;;10.04;44.32;95882.53;5050788;28;21007;-68
2021/03/11 03:22:11;;;;;;;12.20;6.70;;;;;;;10.18;42.81;95878.31;5074962;28;20466;-66
2021/03/11 03:24:37;;;;;;;15.20;7.20;;;;;;;10.21;43.86;95864.81;5050824;28;20520;-67
2021/03/11 03:27:03;;;;;;;10.50;6.70;;;;;;;10.13;44.19;95865.75;5049656;28;20469;-66
2021/03/11 03:29:31;;;;;;;9.10;6.27;;;;;;;10.34;44.37;95865.97;5044730;28;20469;-67
2021/03/11 03:31:56;;;;;;;8.20;6.37;;;;;;;10.32;44.99;95865.38;5047528;28;20276;-68
2021/03/11 03:34:22;;;;;;;7.77;5.80;;;;;;;10.13;44.74;95863.16;5051355;28;20425;-68
2021/03/11 03:36:48;;;;;;;8.47;5.80;;;;;;;9.83;46.33;95859.72;5063783;28;20182;-66
2021/03/11 03:39:13;;;;;;;10.83;6.07;;;;;;;9.92;46.20;95860.44;5065542;28;20305;-68
2021/03/11 03:41:41;;;;;;;8.83;5.33;;;;;;;9.33;48.27;95854.16;5069945;28;20217;-67
2021/03/11 03:44:11;;;;;;;7.90;4.90;;;;;;;9.42;47.87;95855.72;5050308;28;20199;-68
2021/03/11 03:46:38;;;;;;;8.00;5.00;;;;;;;10.04;46.57;95852.94;5049698;28;20425;-69
2021/03/11 03:49:04;;;;;;;8.47;5.07;;;;;;;9.80;46.99;95841.78;5049316;28;20418;-67
2021/03/11 03:51:31;;;;;;;5.90;4.70;;;;;;;9.92;47.44;95835.09;5055606;28;20548;-68
2021/03/11 03:54:19;;;;;;;9.83;4.70;;;;;;;10.27;46.89;95848.41;5057857;28;20536;-68
2021/03/11 03:56:58;;;;;;;9.13;5.13;;;;;;;9.92;47.54;95847.34;5050943;28;20422;-68
2021/03/11 03:59:25;;;;;;;6.73;5.07;;;;;;;9.97;47.83;95845.81;5049572;28;20947;-67
2021/03/11 04:01:54;;;;;;;6.10;4.47;;;;;;;10.02;47.92;95860.16;5033518;28;20461;-67
2021/03/11 04:04:20;;;;;;;9.20;5.43;;;;;;;9.87;49.35;95834.81;5054436;28;20448;-67
2021/03/11 04:06:45;;;;;;;7.63;5.40;;;;;;;9.93;49.47;95836.72;5052464;28;20532;-67
2021/03/11 04:09:12;;;;;;;6.60;3.73;;;;;;;10.16;48.97;95851.50;5045256;28;20183;-69
2021/03/11 04:11:41;;;;;;;8.43;4.40;;;;;;;10.03;49.25;95841.66;5045862;28;20206;-68
2021/03/11 04:14:08;;;;;;;5.40;4.03;;;;;;;10.60;48.16;95841.94;5052062;28;20422;-67
2021/03/11 04:16:34;;;;;;;6.30;4.10;;;;;;;10.34;48.96;95847.66;5056691;28;20484;-66
2021/03/11 04:19:00;;;;;;;6.90;4.40;;;;;;;10.47;48.75;95853.06;5031639;28;20465;-66
2021/03/11 04:21:28;;;;;;;10.10;4.50;;;;;;;10.11;49.75;95843.38;5048522;28;20223;-67
2021/03/11 04:23:54;;;;;;;5.27;4.60;;;;;;;10.09;50.43;95832.25;5050009;28;20425;-67
2021/03/11 04:26:20;;;;;;;7.47;4.10;;;;;;;10.62;49.04;95833.88;5061796;28;20517;-67
2021/03/11 04:28:46;;;;;;;5.10;4.23;;;;;;;10.43;49.53;95839.53;5081464;28;20406;-67
2021/03/11 04:31:12;;;;;;;7.40;4.33;;;;;;;10.28;50.14;95833.50;5052970;28;21004;-67
2021/03/11 04:33:39;;;;;;;6.20;4.17;;;;;;;10.22;50.36;95839.47;5050753;28;20199;-68
2021/03/11 04:36:05;;;;;;;7.00;4.10;;;;;;;10.46;50.09;95827.88;5083832;28;20444;-67
2021/03/11 04:38:31;;;;;;;9.33;3.97;;;;;;;10.45;49.79;95823.66;5053128;28;20460;-68
2021/03/11 04:40:57;;;;;;;7.50;4.40;;;;;;;10.07;51.46;95826.41;5064451;28;20437;-66
2021/03/11 04:43:22;;;;;;;4.37;3.80;;;;;;;9.99;51.20;95833.34;5066596;28;20285;-67
2021/03/11 04:45:48;;;;;;;5.30;3.90;;;;;;;10.30;51.04;95831.50;5063626;28;20179;-71
2021/03/11 04:48:14;;;;;;;6.40;4.03;;;;;;;10.50;50.47;95826.53;5079627;28;20190;-68
2021/03/11 04:50:41;;;;;;;11.23;4.17;;;;;;;10.08;51.35;95835.91;5054242;28;20175;-67
2021/03/11 04:53:08;;;;;;;5.27;4.30;;;;;;;10.57;50.32;95816.94;5052956;28;20195;-67
2021/03/11 04:55:34;;;;;;;5.37;4.20;;;;;;;10.51;50.64;95843.84;5053839;28;20456;-68
2021/03/11 04:58:01;;;;;;;5.37;4.10;;;;;;;10.45;50.77;95842.00;5053579;28;20428;-68
2021/03/11 05:00:27;;;;;;;6.63;4.00;;;;;;;10.49;50.64;95832.75;5054004;28;20437;-67
2021/03/11 05:02:55;;;;;;;4.83;3.40;;;;;;;10.67;50.50;95840.19;5053138;28;20707;-67
2021/03/11 05:05:37;;;;;;;4.70;4.00;;;;;;;10.65;50.89;95829.06;5051797;28;20429;-66
2021/03/11 05:08:03;;;;;;;4.73;3.33;;;;;;;10.68;50.35;95835.78;5051856;28;20429;-69
2021/03/11 05:10:30;;;;;;;7.40;3.70;;;;;;;10.74;50.55;95821.91;5063926;28;20414;-66
2021/03/11 05:12:55;;;;;;;9.13;4.37;;;;;;;10.30;51.76;95832.34;5050703;28;20462;-69
2021/03/11 05:15:21;;;;;;;5.30;4.20;;;;;;;10.59;51.15;95841.13;5051937;28;20960;-68
2021/03/11 05:17:47;;;;;;;8.10;4.60;;;;;;;10.47;51.54;95837.34;5052835;28;20422;-67
2021/03/11 05:20:13;;;;;;;5.70;3.70;;;;;;;10.63;50.74;95841.56;5055095;28;20179;-68
2021/03/11 05:22:39;;;;;;;7.10;3.97;;;;;;;10.77;50.59;95842.50;5053908;28;20647;-67
2021/03/11 05:25:10;;;;;;;6.90;4.77;;;;;;;10.48;51.55;95849.47;5051444;28;20437;-67
2021/03/11 05:27:36;;;;;;;9.30;4.73;;;;;;;10.39;51.86;95840.09;5053109;28;20426;-67
2021/03/11 05:30:05;;;;;;;6.90;3.83;;;;;;;10.47;51.80;95837.34;5052352;28;20955;-67
2021/03/11 05:32:30;;;;;;;6.07;3.67;;;;;;;10.71;51.47;95832.78;5051664;28;20474;-68
2021/03/11 05:34:56;;;;;;;7.97;4.40;;;;;;;10.54;51.84;95827.78;5052830;28;20418;-68
2021/03/11 05:37:21;;;;;;;11.13;4.23;;;;;;;9.92;53.88;95835.09;5051734;28;20190;-68
2021/03/11 05:39:50;;;;;;;5.60;4.30;;;;;;;10.50;52.26;95830.97;5050862;28;20211;-68
2021/03/11 05:42:19;;;;;;;5.77;3.90;;;;;;;10.53;52.20;95835.81;5060978;28;20199;-68
2021/03/11 05:44:45;;;;;;;3.90;3.50;;;;;;;10.55;52.40;95824.16;5052248;28;20426;-67
2021/03/11 05:47:14;;;;;;;7.40;3.97;;;;;;;10.11;53.09;95833.72;5040412;28;20436;-68
2021/03/11 05:49:41;;;;;;;10.27;4.73;;;;;;;10.47;52.89;95826.09;5052908;28;20175;-72
2021/03/11 05:52:11;;;;;;;8.03;3.90;;;;;;;10.43;52.92;95825.66;5050132;28;20448;-67
2021/03/11 05:54:37;;;;;;;4.43;3.83;;;;;;;10.35;53.15;95838.81;5050365;28;20513;-67
2021/03/11 05:57:04;;;;;;;7.83;3.70;;;;;;;9.90;54.16;95833.63;5056344;28;20888;-67
2021/03/11 05:59:30;;;;;;;8.70;3.90;;;;;;;10.08;53.76;95812.34;5057693;28;20458;-66
2021/03/11 06:01:57;;;;;;;7.83;3.87;;;;;;;10.32;53.49;95820.88;5049566;28;20560;-67
2021/03/11 06:04:23;;;;;;;4.43;3.40;;;;;;;9.99;54.38;95820.28;5051669;28;20958;-67
2021/03/11 06:06:49;;;;;;;4.07;3.23;;;;;;;10.29;54.06;95809.75;5052160;28;20430;-67
2021/03/11 06:09:18;;;;;;;6.50;3.23;;;;;;;10.18;54.46;95791.09;5056152;28;20416;-68
2021/03/11 06:11:44;;;;;;;5.70;3.30;;;;;;;10.22;54.05;95805.44;5050153;28;20468;-66
2021/03/11 06:14:14;;;;;;;5.10;3.70;;;;;;;10.57;53.74;95790.75;5042805;28;20933;-67
2021/03/11 06:16:45;;;;;;;5.60;4.00;;;;;;;10.55;53.34;95787.50;5054717;28;20795;-66
2021/03/11 06:19:11;;;;;;;5.40;3.50;;;;;;;10.41;53.63;95786.53;5032986;28;20461;-67
2021/03/11 06:21:37;;;;;;;5.23;3.80;;;;;;;10.30;54.28;95787.81;5057260;28;20437;-67
2021/03/11 06:24:03;;;;;;;4.60;3.30;;;;;;;10.18;54.33;95759.66;5084003;28;20187;-67
2021/03/11 06:26:28;;;;;;;7.17;4.10;;;;;;;10.48;53.71;95759.59;5052203;28;20229;-67
2021/03/11 06:28:54;;;;;;;5.30;2.80;;;;;;;10.21;54.29;95760.09;5062208;28;20198;-68
2021/03/11 06:31:26;;;;;;;3.40;3.10;;;;;;;10.36;53.27;95756.63;5058875;28;20309;-67
2021/03/11 06:33:54;;;;;;;4.17;3.23;;;;;;;10.39;53.34;95746.66;5050264;28;20762;-68
2021/03/11 06:36:21;;;;;;;9.10;3.37;;;;;;;10.58;52.86;95754.88;5046309;28;20422;-68
2021/03/11 06:38:47;;;;;;;4.40;3.50;;;;;;;10.60;52.21;95731.91;5052392;28;20538;-67
2021/03/11 06:41:14;;;;;;;4.13;3.20;;;;;;;10.56;52.47;95736.72;5060559;28;20536;-67
2021/03/11 06:43:58;;;;;;;4.07;3.20;;;;;;;10.34;53.20;95779.56;5056031;28;20437;-68
2021/03/11 06:46:27;;;;;;;5.20;3.20;;;;;;;10.25;52.89;95750.91;5045521;28;20441;-67
2021/03/11 06:49:09;;;;;;;5.63;3.00;;;;;;;10.78;51.82;95757.66;5051432;28;20777;-67
2021/03/11 06:51:36;;;;;;;3.90;2.70;;;;;;;10.65;52.29;95773.25;5052310;28;20561;-67
2021/03/11 06:54:02;;;;;;;4.20;2.60;;;;;;;10.74;51.70;95731.03;5051460;28;20437;-67
2021/03/11 06:56:28;;;;;;;3.13;2.53;;;;;;;10.78;51.62;95765.53;5051934;28;20472;-67
2021/03/11 06:58:59;;;;;;;5.43;3.27;;;;;;;10.85;51.53;95748.03;5051817;28;20491;-67
2021/03/11 07:01:26;;;;;;;3.97;2.87;;;;;;;10.48;52.13;95738.66;5058007;28;20452;-68
2021/03/11 07:03:52;;;;;;;5.73;3.30;;;;;;;10.60;51.98;95758.13;5053406;28;20426;-67
2021/03/11 07:06:31;;;;;;;3.20;2.80;;;;;;;10.61;52.14;95744.03;5050631;28;20441;-70
2021/03/11 07:08:58;;;;;;;5.00;3.10;;;;;;;10.85;51.80;95753.28;5047389;28;20433;-68
2021/03/11 07:11:24;;;;;;;5.00;2.60;;;;;;;10.69;52.19;95743.06;5051095;28;20967;-69
2021/03/11 07:13:50;;;;;;;3.77;2.83;;;;;;;10.64;52.19;95755.91;5031212;28;20453;-69
2021/03/11 07:16:21;;;;;;;4.07;2.63;;;;;;;11.15;50.94;95754.94;5050169;28;20472;-68
2021/03/11 07:18:47;;;;;;;6.50;2.30;;;;;;;10.86;51.75;95757.50;5051283;28;20972;-68
2021/03/11 07:21:14;;;;;;;5.80;2.40;;;;;;;11.00;51.66;95753.22;5056640;28;20445;-69
2021/03/11 07:23:52;;;;;;;3.50;2.53;;;;;;;11.27;50.71;95728.97;5049363;28;20425;-69
2021/03/11 07:26:17;;;;;;;8.13;2.70;;;;;;;11.13;51.41;95757.72;5046338;28;20460;-69
2021/03/11 07:28:43;;;;;;;2.43;2.10;;;;;;;11.31;51.15;95744.13;5058989;28;20449;-69
2021/03/11 07:31:09;;;;;;;3.20;2.43;;;;;;;11.25;51.18;95776.38;5023465;28;20200;-69
2021/03/11 07:33:36;;;;;;;2.60;2.20;;;;;;;11.58;50.35;95773.13;5047529;28;20183;-69
2021/03/11 07:36:06;;;;;;;3.10;2.10;;;;;;;11.40;50.80;95763.13;5052722;28;20217;-68
2021/03/11 07:38:34;;;;;;;4.23;2.43;;;;;;;11.17;51.66;95774.69;5052875;28;20454;-67
2021/03/11 07:41:02;;;;;;;7.90;2.73;;;;;;;11.17;52.08;95764.22;5051427;28;20447;-68
2021/03/11 07:43:29;;;;;;;2.77;2.43;;;;;;;11.57;51.19;95778.59;5055604;28;20437;-68
2021/03/11 07:45:56;;;;;;;4.60;2.43;;;;;;;11.86;50.49;95777.50;5051281;28;20432;-68
2021/03/11 07:48:22;;;;;;;4.23;2.00;;;;;;;11.47;51.59;95778.91;5053070;28;20484;-67
2021/03/11 07:50:49;;;;;;;2.60;2.40;;;;;;;11.87;50.47;95775.69;5060770;28;20428;-68
2021/03/11 07:53:15;;;;;;;6.47;2.40;;;;;;;11.78;50.72;95775.06;5048559;28;20534;-69
2021/03/11 07:55:40;;;;;;;6.43;2.47;;;;;;;11.62;51.36;95770.94;5047773;28;21002;-69
2021/03/11 07:58:09;;;;;;;2.80;2.20;;;;;;;11.92;50.85;95765.41;5050041;28;20183;-69
2021/03/11 08:00:35;;;;;;;2.30;2.10;;;;;;;12.13;50.16;95749.56;5040452;28;20254;-69
2021/03/11 08:03:13;;;;;;;4.63;2.10;;;;;;;11.98;50.48;95744.47;5055461;28;20786;-68
2021/03/11 08:05:39;;;;;;;10.13;2.27;;;;;;;12.36;49.67;95755.50;5056715;28;20479;-71
2021/03/11 08:08:25;;;;;;;3.70;2.70;;;;;;;11.93;50.51;95743.41;5052074;28;20481;-71
2021/03/11 08:10:53;;;;;;;5.10;2.60;;;;;;;12.58;49.16;95738.53;5052323;28;20520;-71
2021/03/11 08:13:39;;;;;;;2.53;2.20;;;;;;;12.51;48.99;95736.91;5042815;28;20430;-70
2021/03/11 08:16:13;;;;;;;5.67;2.00;;;;;;;12.20;49.28;95743.53;5050563;28;20584;-70
2021/03/11 08:18:44;;;;;;;2.27;2.07;;;;;;;12.34;49.68;95742.56;5058412;28;20457;-72
2021/03/11 08:21:25;;;;;;;8.93;2.37;;;;;;;11.78;50.68;95736.50;5053183;28;20460;-70
2021/03/11 08:23:57;;;;;;;2.80;2.13;;;;;;;12.53;48.63;95742.78;5053383;28;20823;-71
2021/03/11 08:26:38;;;;;;;3.43;2.23;;;;;;;12.36;49.21;95739.72;5055809;28;20896;-71
2021/03/11 08:29:18;;;;;;;3.20;2.20;;;;;;;12.40;49.46;95730.44;5053475;28;20502;-71
2021/03/11 08:31:45;;;;;;;3.27;2.13;;;;;;;12.72;48.65;95710.47;5050873;28;20502;-71
2021/03/11 08:34:33;;;;;;;5.13;2.30;;;;;;;12.69;48.42;95724.00;5054499;28;20434;-70
2021/03/11 08:37:18;;;;;;;3.63;2.73;;;;;;;12.58;48.74;95725.41;5054905;28;20429;-69
2021/03/11 08:39:43;;;;;;;2.80;2.17;;;;;;;12.78;48.63;95715.91;5056142;28;20452;-71
2021/03/11 08:42:49;;;;;;;4.70;1.87;;;;;;;12.84;48.26;95723.00;5044122;28;20517;-70
2021/03/11 08:45:33;;;;;;;6.70;2.80;;;;;;;12.44;49.61;95721.13;5056272;28;20566;-72
2021/03/11 08:48:21;;;;;;;4.67;2.07;;;;;;;12.78;49.00;95705.38;5066125;28;20433;-70
2021/03/11 08:50:52;;;;;;;1.83;1.67;;;;;;;13.09;48.76;95704.75;5059094;28;20426;-70
2021/03/11 08:53:38;;;;;;;2.80;1.87;;;;;;;12.88;49.61;95700.53;5048600;28;20436;-72
2021/03/11 08:56:16;;;;;;;3.87;1.97;;;;;;;13.13;49.34;95689.38;5053146;28;20422;-69
2021/03/11 08:58:59;;;;;;;1.70;1.57;;;;;;;12.92;50.06;95701.75;5070651;28;20457;-69
2021/03/11 09:01:28;;;;;;;2.33;1.83;;;;;;;12.96;50.07;95675.84;5047612;28;21015;-70
2021/03/11 09:03:54;;;;;;;2.60;2.40;;;;;;;13.16;49.51;95688.97;5054682;28;20940;-70
2021/03/11 09:06:52;;;;;;;4.33;1.90;;;;;;;13.26;49.64;95702.50;5051855;28;20451;-72
2021/03/11 09:09:45;;;;;;;2.47;1.50;;;;;;;13.58;48.73;95715.81;5052598;28;20488;-69
2021/03/11 09:12:18;;;;;;;2.10;1.70;;;;;;;13.83;47.88;95692.22;5067121;28;20442;-69
2021/03/11 09:14:49;;;;;;;3.00;1.33;;;;;;;13.86;48.07;95698.88;5060410;28;20438;-71
2021/03/11 09:17:16;;;;;;;1.40;1.30;;;;;;;13.49;49.21;95707.34;5056680;28;20433;-71
2021/03/11 09:19:49;;;;;;;1.97;1.50;;;;;;;13.51;48.78;95692.16;5039668;28;20461;-71
2021/03/11 09:22:35;;;;;;;3.77;1.80;;;;;;;14.09;47.45;95679.13;5061012;28;20441;-71
2021/03/11 09:25:10;;;;;;;3.10;1.70;;;;;;;14.05;47.10;95683.19;5060838;28;20433;-71
2021/03/11 09:28:02;;;;;;;6.73;2.00;;;;;;;13.95;47.70;95697.63;5066190;28;20436;-70
2021/03/11 09:30:36;;;;;;;3.50;1.80;;;;;;;13.94;47.50;95706.56;5043200;28;21149;-70
2021/03/11 09:33:12;;;;;;;7.47;2.70;;;;;;;13.93;47.42;95694.41;5052711;28;20524;-71
2021/03/11 09:35:38;;;;;;;2.10;1.50;;;;;;;13.43;48.36;95676.56;5055295;28;20425;-71
2021/03/11 09:38:05;;;;;;;5.70;1.60;;;;;;;13.81;47.57;95699.50;5061047;28;20440;-70
2021/03/11 09:40:40;;;;;;;1.70;1.50;;;;;;;13.87;47.73;95681.25;5060583;28;20427;-70
2021/03/11 09:43:15;;;;;;;2.20;1.40;;;;;;;13.38;48.99;95684.25;5056464;28;20479;-71
2021/03/11 09:45:48;;;;;;;2.37;1.80;;;;;;;13.88;47.87;95670.50;5055011;28;20932;-70
2021/03/11 09:48:21;;;;;;;9.87;1.53;;;;;;;14.03;47.48;95654.44;5047037;28;20444;-70
2021/03/11 09:50:58;;;;;;;1.40;1.30;;;;;;;14.29;46.98;95658.72;5053867;28;20496;-71
2021/03/11 09:53:31;;;;;;;2.00;1.63;;;;;;;14.01;47.61;95666.19;5041735;28;20418;-71
2021/03/11 09:55:57;;;;;;;2.07;1.40;;;;;;;14.01;47.80;95663.56;5058829;28;20425;-69
2021/03/11 09:58:23;;;;;;;1.40;1.30;;;;;;;14.14;47.71;95666.13;5064374;28;20612;-70
2021/03/11 10:00:49;;;;;;;5.20;2.00;;;;;;;13.82;48.39;95652.94;5054415;28;20179;-72
2021/03/11 10:03:29;;;;;;;3.03;1.40;;;;;;;14.36;47.25;95644.72;5050057;28;20195;-71
2021/03/11 10:06:00;;;;;;;1.97;1.40;;;;;;;14.33;47.75;95659.09;5052946;28;20454;-71
2021/03/11 10:08:37;;;;;;;11.37;1.33;;;;;;;14.47;47.49;95653.72;5055721;28;20907;-70
2021/03/11 10:11:07;;;;;;;6.43;1.30;;;;;;;14.40;47.79;95644.06;5063899;28;20468;-70
2021/03/11 10:13:39;;;;;;;3.53;1.30;;;;;;;13.95;48.88;95665.22;5055250;28;20441;-71
2021/03/11 10:16:05;;;;;;;2.00;1.43;;;;;;;14.73;47.28;95642.22;5054422;28;20422;-71
2021/03/11 10:18:33;;;;;;;3.27;1.33;;;;;;;14.05;48.86;95651.59;5055247;28;20461;-69
2021/03/11 10:21:04;;;;;;;1.30;1.20;;;;;;;14.83;47.15;95660.97;5038030;28;20484;-71
2021/03/11 10:23:30;;;;;;;2.70;1.40;;;;;;;13.90;49.62;95652.69;5054089;28;20439;-70
2021/03/11 10:26:16;;;;;;;5.80;1.23;;;;;;;14.20;49.46;95646.84;5054607;28;20886;-70
2021/03/11 10:28:43;;;;;;;2.30;1.13;;;;;;;14.03;50.27;95659.72;5057067;28;20175;-69
2021/03/11 10:31:10;;;;;;;6.30;1.40;;;;;;;14.33;49.91;95658.31;5048843;28;20498;-70
2021/03/11 10:33:38;;;;;;;3.87;1.27;;;;;;;14.11;50.39;95656.81;5053032;28;20632;-71
2021/03/11 10:36:12;;;;;;;3.53;1.30;;;;;;;14.34;50.20;95660.72;5053262;28;20472;-69
2021/03/11 10:38:38;;;;;;;1.20;1.10;;;;;;;14.06;51.26;95654.00;5062353;28;20570;-70
2021/03/11 10:41:17;;;;;;;2.70;1.40;;;;;;;14.39;50.36;95657.44;5060445;28;20449;-70
2021/03/11 10:43:44;;;;;;;1.20;1.03;;;;;;;14.53;49.98;95655.53;5056079;28;20194;-70
2021/03/11 10:46:28;;;;;;;1.50;1.03;;;;;;;14.31;50.90;95644.53;5047071;28;20481;-70
2021/03/11 10:48:53;;;;;;;2.10;1.33;;;;;;;14.00;51.86;95652.22;5055232;28;20405;-70
2021/03/11 10:51:21;;;;;;;1.43;1.17;;;;;;;14.28;51.48;95648.41;5055086;28;20448;-69
2021/03/11 10:53:47;;;;;;;1.63;1.33;;;;;;;14.28;51.82;95640.50;5086443;28;20654;-70
2021/03/11 10:56:13;;;;;;;2.90;1.00;;;;;;;14.08;52.28;95653.81;5058492;28;20413;-71
2021/03/11 10:58:40;;;;;;;3.93;1.67;;;;;;;14.22;52.08;95647.44;5058517;28;20457;-70
2021/03/11 11:01:06;;;;;;;2.13;1.17;;;;;;;13.74;53.74;95646.09;5055005;28;20448;-70
2021/03/11 11:03:32;;;;;;;1.50;1.33;;;;;;;14.21;52.55;95672.16;5053559;28;20426;-70
2021/03/11 11:05:58;;;;;;;2.40;1.53;;;;;;;14.01;53.35;95645.94;5053475;28;20183;-70
2021/03/11 11:08:23;;;;;;;2.40;1.07;;;;;;;14.15;53.68;95675.63;5054462;28;20420;-69
2021/03/11 11:10:49;;;;;;;1.03;0.80;;;;;;;13.90;55.72;95679.00;5061076;28;20534;-69
2021/03/11 11:13:15;;;;;;;2.37;1.40;;;;;;;13.83;57.57;95671.16;5052936;28;20182;-69
2021/03/11 11:15:40;;;;;;;3.17;1.23;;;;;;;13.51;58.91;95683.44;5052621;28;20622;-70
2021/03/11 11:18:06;;;;;;;5.00;2.03;;;;;;;13.67;59.59;95676.91;5053315;28;20321;-68
2021/03/11 11:20:33;;;;;;;3.13;1.50;;;;;;;13.70;59.87;95686.22;5057782;28;20219;-69
2021/03/11 11:23:00;;;;;;;3.83;1.07;;;;;;;13.23;60.97;95692.41;5054222;28;20276;-69
2021/03/11 11:25:26;;;;;;;3.20;1.20;;;;;;;13.38;60.51;95689.53;5053419;28;20421;-68
2021/03/11 11:27:51;;;;;;;2.13;1.30;;;;;;;13.10;61.98;95697.69;5053367;28;20417;-69
2021/03/11 11:30:17;;;;;;;4.87;1.47;;;;;;;13.35;61.73;95701.28;5053844;28;20230;-69
2021/03/11 11:32:43;;;;;;;8.03;1.63;;;;;;;13.18;62.40;95692.19;5053527;28;20199;-70
2021/03/11 11:35:09;;;;;;;2.13;1.00;;;;;;;12.96;63.74;95687.19;5062628;28;20191;-69
2021/03/11 11:37:35;;;;;;;2.17;1.47;;;;;;;13.23;62.45;95686.31;5054038;28;20179;-69
2021/03/11 11:40:01;;;;;;;1.20;1.10;;;;;;;13.42;62.72;95685.47;5053594;28;20552;-70